Time;durP1;ratioP1;P1;durP2;ratioP2;P2;SDS_P1;SDS_P2;PMS_P1;PMS_P2;Temp;Humidity;BMP_temperature;BMP_pressure;BME280_temperature;BME280_humidity;BME280_pressure;Samples;Min_cycle;Max_cycle;Signal;HPM_P1;HPM_P2
2023/01/20 00:02:01;;;;;;;25.67;13.13;;;2.80;1.00;;;;;;4953034;28;20235;-77
2023/01/20 00:04:27;;;;;;;19.30;13.00;;;2.70;1.00;;;;;;4955798;28;20593;-75
2023/01/20 00:06:53;;;;;;;22.80;13.70;;;3.20;1.00;;;;;;4952475;28;20191;-75
2023/01/20 00:09:18;;;;;;;25.63;14.43;;;2.70;1.00;;;;;;4953180;28;20257;-76
2023/01/20 00:11:44;;;;;;;19.77;12.77;;;3.00;1.00;;;;;;4951044;28;20483;-76
2023/01/20 00:14:10;;;;;;;24.63;13.60;;;2.70;1.00;;;;;;4953199;28;20185;-76
2023/01/20 00:16:36;;;;;;;26.17;13.57;;;2.80;1.00;;;;;;4952623;28;20427;-76
2023/01/20 00:19:02;;;;;;;18.93;11.83;;;3.00;1.00;;;;;;4952433;28;20192;-77
2023/01/20 00:21:27;;;;;;;22.37;12.37;;;2.70;1.00;;;;;;4952751;28;20223;-76
2023/01/20 00:23:53;;;;;;;19.90;12.50;;;2.70;1.00;;;;;;4951405;28;20191;-75
2023/01/20 00:26:21;;;;;;;19.23;11.93;;;2.90;1.00;;;;;;4952205;28;20185;-76
2023/01/20 00:28:47;;;;;;;17.60;12.70;;;2.60;1.00;;;;;;4952829;28;20191;-77
2023/01/20 00:31:19;;;;;;;22.87;14.17;;;2.60;1.00;;;;;;4952620;28;20456;-76
2023/01/20 00:33:46;;;;;;;27.97;15.60;;;2.50;1.00;;;;;;4951042;28;20443;-76
2023/01/20 00:36:13;;;;;;;24.37;14.60;;;2.70;1.00;;;;;;4952368;28;20432;-75
2023/01/20 00:38:39;;;;;;;27.80;15.10;;;2.50;1.00;;;;;;4951233;28;20962;-76
2023/01/20 00:41:05;;;;;;;24.53;14.73;;;2.80;1.00;;;;;;4952075;28;21033;-76
2023/01/20 00:43:30;;;;;;;20.53;12.60;;;2.70;1.00;;;;;;4952698;28;20538;-75
2023/01/20 00:45:56;;;;;;;22.20;12.00;;;2.90;1.00;;;;;;4950720;28;20443;-75
2023/01/20 00:48:22;;;;;;;17.73;12.37;;;2.70;1.00;;;;;;4952659;28;20515;-76
2023/01/20 00:50:47;;;;;;;20.23;11.80;;;2.80;1.00;;;;;;4952289;28;20216;-76
2023/01/20 00:53:12;;;;;;;27.50;14.50;;;2.60;1.00;;;;;;4952154;28;20196;-76
2023/01/20 00:55:38;;;;;;;22.33;12.80;;;3.00;1.00;;;;;;4951794;28;20199;-77
2023/01/20 00:58:04;;;;;;;21.37;13.00;;;2.60;1.00;;;;;;4950373;28;20292;-77
2023/01/20 01:00:29;;;;;;;21.20;12.70;;;2.70;1.00;;;;;;4951093;28;20521;-76
2023/01/20 01:02:55;;;;;;;21.47;12.30;;;3.10;1.00;;;;;;4951988;28;20554;-76
2023/01/20 01:05:21;;;;;;;23.33;13.30;;;2.60;1.00;;;;;;4951909;28;20527;-76
2023/01/20 01:07:47;;;;;;;26.00;12.87;;;2.60;1.00;;;;;;4951445;28;20192;-76
2023/01/20 01:10:12;;;;;;;21.33;11.90;;;2.70;1.00;;;;;;4951477;28;20448;-76
2023/01/20 01:12:38;;;;;;;20.60;13.80;;;2.70;1.00;;;;;;4952231;28;20185;-76
2023/01/20 01:15:04;;;;;;;18.30;11.63;;;3.00;1.00;;;;;;4951490;28;20216;-76
2023/01/20 01:17:29;;;;;;;20.90;12.83;;;2.60;1.00;;;;;;4950113;28;20793;-76
2023/01/20 01:19:55;;;;;;;20.47;12.20;;;2.60;1.00;;;;;;4951359;28;20464;-75
2023/01/20 01:22:20;;;;;;;21.33;13.60;;;2.60;1.00;;;;;;4952041;28;20259;-76
2023/01/20 01:24:47;;;;;;;18.77;12.57;;;2.60;1.00;;;;;;4950253;28;20211;-75
2023/01/20 01:27:13;;;;;;;21.00;13.40;;;2.60;1.00;;;;;;4943580;28;20279;-75
2023/01/20 01:29:38;;;;;;;18.83;12.80;;;2.60;1.00;;;;;;4951866;28;20958;-76
2023/01/20 01:32:04;;;;;;;21.70;13.40;;;2.60;1.00;;;;;;4948950;28;20359;-76
2023/01/20 01:34:30;;;;;;;20.77;12.47;;;2.60;1.00;;;;;;4943186;28;20706;-76
2023/01/20 01:36:56;;;;;;;20.57;12.77;;;2.70;1.00;;;;;;4949527;28;20511;-75
2023/01/20 01:39:22;;;;;;;21.53;13.10;;;2.90;1.00;;;;;;4950496;28;20670;-75
2023/01/20 01:41:47;;;;;;;23.50;13.27;;;2.70;1.00;;;;;;4951715;28;20706;-76
2023/01/20 01:44:13;;;;;;;27.33;13.10;;;2.70;1.00;;;;;;4951117;28;20424;-75
2023/01/20 01:46:40;;;;;;;21.63;13.00;;;3.00;1.00;;;;;;4951000;28;20188;-75
2023/01/20 01:49:23;;;;;;;20.93;13.97;;;2.70;1.00;;;;;;4949719;28;20196;-75
2023/01/20 01:52:07;;;;;;;23.00;13.47;;;2.60;1.00;;;;;;4951220;28;20432;-77
2023/01/20 01:54:37;;;;;;;22.07;13.37;;;2.60;1.00;;;;;;4951650;28;20436;-75
2023/01/20 01:57:06;;;;;;;21.67;13.20;;;2.60;1.00;;;;;;4951282;28;21024;-75
2023/01/20 01:59:31;;;;;;;23.00;13.73;;;2.60;1.00;;;;;;4951244;28;20452;-75
2023/01/20 02:01:57;;;;;;;22.53;13.20;;;2.60;1.00;;;;;;4949908;28;20795;-77
2023/01/20 02:04:25;;;;;;;21.53;13.23;;;2.60;1.00;;;;;;4951164;28;20192;-76
2023/01/20 02:07:14;;;;;;;19.90;13.40;;;2.60;1.00;;;;;;4953015;28;20653;-76
2023/01/20 02:09:40;;;;;;;24.63;13.20;;;2.50;1.00;;;;;;4951244;28;20521;-77
2023/01/20 02:12:09;;;;;;;22.50;13.43;;;2.60;1.00;;;;;;4951010;28;20952;-76
2023/01/20 02:14:40;;;;;;;22.67;13.20;;;2.70;1.00;;;;;;4950498;28;20666;-76
2023/01/20 02:17:27;;;;;;;22.70;14.00;;;3.00;1.00;;;;;;4947714;28;20777;-75
2023/01/20 02:20:19;;;;;;;19.60;12.90;;;2.70;1.00;;;;;;4949420;28;20463;-75
2023/01/20 02:23:14;;;;;;;25.50;14.40;;;2.50;1.00;;;;;;4951299;28;20451;-76
2023/01/20 02:25:58;;;;;;;24.70;13.90;;;2.50;1.00;;;;;;4945968;28;20431;-76
2023/01/20 02:28:52;;;;;;;19.97;13.23;;;2.50;1.00;;;;;;4949335;28;20440;-76
2023/01/20 02:31:43;;;;;;;21.87;13.43;;;2.50;1.00;;;;;;4949496;28;20982;-76
2023/01/20 02:34:22;;;;;;;24.57;14.83;;;2.60;1.00;;;;;;4950723;28;20612;-76
2023/01/20 02:37:04;;;;;;;20.97;13.07;;;2.60;1.00;;;;;;4949462;28;20451;-75
2023/01/20 02:40:00;;;;;;;21.10;13.60;;;2.60;1.00;;;;;;4951076;28;20973;-76
2023/01/20 02:42:51;;;;;;;21.33;13.40;;;2.60;1.00;;;;;;4959137;28;20436;-75
2023/01/20 02:45:27;;;;;;;24.60;13.73;;;2.60;1.00;;;;;;4942413;28;21001;-76
2023/01/20 02:48:08;;;;;;;22.87;12.57;;;2.50;1.00;;;;;;4953238;28;20435;-76
2023/01/20 02:50:52;;;;;;;21.70;13.67;;;2.50;1.00;;;;;;4954332;28;20510;-76
2023/01/20 02:53:21;;;;;;;21.57;13.33;;;2.90;1.00;;;;;;4953052;28;20430;-76
2023/01/20 02:55:48;;;;;;;20.63;12.60;;;2.50;1.00;;;;;;4954245;28;20440;-76
2023/01/20 02:58:22;;;;;;;22.50;13.60;;;2.60;1.00;;;;;;4954238;28;20834;-76
2023/01/20 03:00:53;;;;;;;19.50;12.63;;;2.80;1.00;;;;;;4954532;28;20818;-76
2023/01/20 03:03:24;;;;;;;21.07;13.03;;;2.50;1.00;;;;;;4946338;28;20801;-76
2023/01/20 03:05:57;;;;;;;19.07;13.37;;;3.00;1.00;;;;;;4953607;28;20436;-75
2023/01/20 03:08:26;;;;;;;21.90;13.50;;;2.50;1.00;;;;;;4946799;28;20990;-76
2023/01/20 03:10:53;;;;;;;23.67;13.03;;;2.50;1.00;;;;;;4954265;28;20960;-76
2023/01/20 03:13:30;;;;;;;21.73;13.43;;;2.50;1.00;;;;;;4952662;28;20539;-76
2023/01/20 03:16:08;;;;;;;20.20;13.27;;;2.50;1.00;;;;;;4954000;28;20443;-76
2023/01/20 03:18:35;;;;;;;22.40;13.30;;;2.40;1.00;;;;;;4950578;28;20475;-76
2023/01/20 03:21:03;;;;;;;23.37;13.50;;;2.50;1.00;;;;;;4952201;28;20451;-76
2023/01/20 03:23:34;;;;;;;18.17;12.43;;;2.50;1.00;;;;;;4952579;28;20450;-76
2023/01/20 03:26:01;;;;;;;22.63;13.73;;;2.70;1.00;;;;;;4953471;28;20440;-76
2023/01/20 03:28:27;;;;;;;25.37;13.77;;;2.00;1.00;;;;;;4953904;28;20436;-77
2023/01/20 03:30:56;;;;;;;24.60;14.03;;;2.80;1.00;;;;;;4953867;28;20865;-75
2023/01/20 03:33:22;;;;;;;21.40;13.13;;;2.80;1.00;;;;;;4944484;28;20247;-75
2023/01/20 03:35:48;;;;;;;21.57;13.27;;;2.90;1.00;;;;;;4953673;28;20830;-76
2023/01/20 03:38:14;;;;;;;21.30;13.63;;;2.40;1.00;;;;;;4953439;28;20515;-75
2023/01/20 03:40:47;;;;;;;22.23;14.20;;;2.40;1.00;;;;;;4953509;28;20858;-75
2023/01/20 03:43:52;;;;;;;22.00;13.43;;;2.70;1.00;;;;;;4953417;28;20189;-76
2023/01/20 03:46:33;;;;;;;22.07;12.53;;;2.30;1.00;;;;;;4952299;28;20530;-77
2023/01/20 03:49:30;;;;;;;21.13;13.57;;;2.70;1.00;;;;;;4953146;28;20428;-75
2023/01/20 03:52:08;;;;;;;22.70;14.07;;;2.30;1.00;;;;;;4953215;28;20432;-75
2023/01/20 03:54:42;;;;;;;24.03;14.10;;;2.20;1.00;;;;;;4953507;28;20566;-75
2023/01/20 03:57:17;;;;;;;23.00;14.47;;;2.70;1.00;;;;;;4953141;28;20558;-76
2023/01/20 03:59:46;;;;;;;19.70;13.13;;;2.20;1.00;;;;;;4953378;28;20535;-76
2023/01/20 04:02:11;;;;;;;22.13;13.57;;;2.70;1.00;;;;;;4951563;28;20428;-76
2023/01/20 04:04:40;;;;;;;22.53;13.63;;;2.20;1.00;;;;;;4951514;28;20459;-77
2023/01/20 04:07:09;;;;;;;20.07;13.90;;;2.20;1.00;;;;;;4953574;28;20662;-75
2023/01/20 04:09:39;;;;;;;21.57;13.60;;;2.80;1.00;;;;;;4953229;28;20443;-77
2023/01/20 04:12:05;;;;;;;19.30;12.63;;;2.20;1.00;;;;;;4952906;28;20428;-76
2023/01/20 04:14:33;;;;;;;19.17;13.53;;;2.30;1.00;;;;;;4952792;28;20435;-76
2023/01/20 04:16:58;;;;;;;22.27;13.90;;;2.40;1.00;;;;;;4948137;28;20185;-75
2023/01/20 04:19:25;;;;;;;21.00;13.47;;;2.80;1.00;;;;;;4953052;28;20483;-75
2023/01/20 04:22:12;;;;;;;21.00;13.33;;;2.20;1.00;;;;;;4952432;28;20189;-76
2023/01/20 04:24:58;;;;;;;24.27;14.30;;;2.20;1.00;;;;;;4953026;28;20509;-77
2023/01/20 04:27:24;;;;;;;30.20;14.00;;;2.20;1.00;;;;;;4952844;28;20563;-75
2023/01/20 04:29:49;;;;;;;17.90;11.83;;;2.20;1.00;;;;;;4951247;28;20554;-76
2023/01/20 04:32:15;;;;;;;20.53;13.63;;;2.20;1.00;;;;;;4952074;28;20188;-76
2023/01/20 04:34:40;;;;;;;23.03;13.20;;;2.60;1.00;;;;;;4952620;28;20670;-77
2023/01/20 04:37:06;;;;;;;19.83;13.10;;;2.60;1.00;;;;;;4945985;28;20216;-75
2023/01/20 04:39:31;;;;;;;20.30;13.47;;;2.10;1.00;;;;;;4952464;28;20204;-76
2023/01/20 04:41:57;;;;;;;23.17;13.43;;;2.00;1.00;;;;;;4952483;28;20188;-76
2023/01/20 04:44:22;;;;;;;22.17;13.77;;;1.90;1.00;;;;;;4952730;28;20181;-76
2023/01/20 04:46:48;;;;;;;24.73;14.63;;;2.00;1.00;;;;;;4952422;28;20582;-76
2023/01/20 04:49:13;;;;;;;25.57;13.70;;;1.80;1.00;;;;;;4951958;28;20541;-76
2023/01/20 04:51:39;;;;;;;19.80;12.37;;;1.80;1.00;;;;;;4952372;28;20176;-76
2023/01/20 04:54:05;;;;;;;22.87;13.67;;;1.70;1.00;;;;;;4950474;28;20184;-75
2023/01/20 04:56:30;;;;;;;21.67;13.53;;;2.20;1.00;;;;;;4952199;28;20196;-76
2023/01/20 04:58:56;;;;;;;22.50;13.60;;;2.00;1.00;;;;;;4952496;28;20207;-76
2023/01/20 05:01:21;;;;;;;21.33;13.90;;;1.60;1.00;;;;;;4950306;28;20204;-75
2023/01/20 05:03:47;;;;;;;21.00;13.77;;;1.90;1.00;;;;;;4950984;28;20180;-75
2023/01/20 05:06:12;;;;;;;21.23;13.40;;;1.40;1.00;;;;;;4950241;28;20184;-76
2023/01/20 05:08:39;;;;;;;26.50;14.87;;;1.40;1.00;;;;;;4951729;28;20248;-77
2023/01/20 05:11:05;;;;;;;23.57;13.63;;;1.40;1.00;;;;;;4951454;28;20211;-77
2023/01/20 05:13:30;;;;;;;22.30;14.27;;;1.80;1.00;;;;;;4951989;28;20515;-77
2023/01/20 05:15:56;;;;;;;21.53;14.17;;;1.30;2.40;;;;;;4951824;28;20558;-75
2023/01/20 05:18:22;;;;;;;23.57;14.03;;;1.30;3.70;;;;;;4951326;28;20208;-75
2023/01/20 05:20:48;;;;;;;23.83;14.63;;;1.20;5.40;;;;;;4950564;28;20207;-76
2023/01/20 05:23:14;;;;;;;21.07;13.43;;;1.10;6.20;;;;;;4951295;28;20226;-76
2023/01/20 05:25:40;;;;;;;23.70;14.27;;;1.10;7.90;;;;;;4950049;28;20475;-75
2023/01/20 05:28:06;;;;;;;20.27;13.10;;;1.20;6.20;;;;;;4951902;28;21014;-77
2023/01/20 05:30:31;;;;;;;20.70;13.13;;;1.20;6.50;;;;;;4950260;28;20212;-77
2023/01/20 05:32:57;;;;;;;22.83;13.27;;;1.20;5.50;;;;;;4950437;28;20197;-75
2023/01/20 05:35:22;;;;;;;23.70;14.80;;;1.10;4.70;;;;;;4951060;28;20184;-75
2023/01/20 05:37:52;;;;;;;23.40;14.90;;;1.40;6.20;;;;;;4951647;28;20240;-75
2023/01/20 05:40:17;;;;;;;21.80;13.30;;;1.00;7.10;;;;;;4950663;28;20204;-75
2023/01/20 05:42:43;;;;;;;26.33;15.37;;;0.90;7.60;;;;;;4951513;28;20431;-76
2023/01/20 05:45:09;;;;;;;28.20;15.33;;;0.90;7.70;;;;;;4951041;28;20272;-76
2023/01/20 05:47:34;;;;;;;24.50;14.30;;;0.80;8.40;;;;;;4951897;28;20184;-75
2023/01/20 05:49:59;;;;;;;22.00;13.93;;;1.10;10.50;;;;;;4951316;28;20208;-75
2023/01/20 05:52:25;;;;;;;21.40;14.03;;;1.10;10.50;;;;;;4950548;28;20184;-76
2023/01/20 05:54:51;;;;;;;22.57;14.23;;;0.70;11.10;;;;;;4950051;28;20212;-76
2023/01/20 05:57:17;;;;;;;24.30;14.70;;;0.90;11.20;;;;;;4951022;28;20686;-77
2023/01/20 05:59:46;;;;;;;27.40;14.40;;;0.70;10.80;;;;;;4951538;28;20204;-76
2023/01/20 06:02:12;;;;;;;23.40;13.90;;;0.60;12.10;;;;;;4953786;28;20423;-76
2023/01/20 06:04:37;;;;;;;22.60;14.40;;;1.00;12.20;;;;;;4956872;28;20951;-76
2023/01/20 06:07:03;;;;;;;22.73;13.97;;;0.60;12.10;;;;;;4950799;28;20216;-76
2023/01/20 06:09:28;;;;;;;24.97;13.23;;;0.50;13.10;;;;;;4943596;28;20513;-76
2023/01/20 06:11:54;;;;;;;29.43;14.97;;;0.60;13.00;;;;;;4951314;28;20275;-76
2023/01/20 06:14:19;;;;;;;20.57;13.87;;;0.50;13.90;;;;;;4949875;28;20423;-77
2023/01/20 06:16:45;;;;;;;23.43;13.77;;;0.80;13.70;;;;;;4950904;28;20176;-76
2023/01/20 06:19:10;;;;;;;21.87;14.10;;;0.40;13.60;;;;;;4950713;28;20716;-75
2023/01/20 06:21:36;;;;;;;28.33;15.40;;;0.40;16.60;;;;;;4954125;28;20550;-76
2023/01/20 06:24:01;;;;;;;26.83;14.10;;;0.40;17.20;;;;;;4953607;28;20606;-76
2023/01/20 06:26:27;;;;;;;23.17;14.03;;;0.30;17.30;;;;;;4954494;28;20184;-76
2023/01/20 06:28:57;;;;;;;22.77;15.23;;;0.70;16.40;;;;;;4954963;28;20196;-82
2023/01/20 06:31:23;;;;;;;24.10;14.03;;;0.90;15.90;;;;;;4953818;28;20563;-75
2023/01/20 06:33:48;;;;;;;24.30;15.27;;;0.80;16.10;;;;;;4953467;28;20424;-75
2023/01/20 06:36:16;;;;;;;20.83;13.60;;;0.30;17.00;;;;;;4952762;28;20271;-76
2023/01/20 06:38:47;;;;;;;23.77;14.13;;;0.30;17.10;;;;;;4953376;28;20208;-75
2023/01/20 06:41:13;;;;;;;26.80;14.73;;;0.40;14.70;;;;;;4954322;28;20740;-75
2023/01/20 06:43:41;;;;;;;24.80;14.70;;;0.20;15.10;;;;;;4953585;28;20482;-75
2023/01/20 06:46:10;;;;;;;23.23;14.37;;;0.20;16.60;;;;;;4954138;28;20188;-74
2023/01/20 06:48:35;;;;;;;28.07;14.97;;;0.10;20.30;;;;;;4954259;28;20459;-75
2023/01/20 06:51:15;;;;;;;23.53;14.90;;;0.10;16.80;;;;;;4953323;28;20974;-75
2023/01/20 06:53:41;;;;;;;22.97;14.60;;;0.10;15.80;;;;;;4948127;28;20648;-74
2023/01/20 06:56:09;;;;;;;24.87;15.87;;;0.10;15.90;;;;;;4953478;28;20439;-74
2023/01/20 06:58:34;;;;;;;37.97;19.03;;;0.00;15.60;;;;;;4952592;28;20348;-75
2023/01/20 07:01:11;;;;;;;30.13;16.77;;;0.00;15.10;;;;;;4953857;28;20531;-74
2023/01/20 07:03:37;;;;;;;24.43;13.47;;;0.40;14.90;;;;;;4954544;28;20275;-75
2023/01/20 07:06:12;;;;;;;28.53;15.10;;;-0.10;15.70;;;;;;4953861;28;20519;-76
2023/01/20 07:08:38;;;;;;;25.73;15.33;;;-0.10;16.10;;;;;;4941412;28;20213;-77
2023/01/20 07:11:03;;;;;;;21.47;13.63;;;0.30;18.30;;;;;;4950142;28;20460;-75
2023/01/20 07:13:29;;;;;;;25.13;13.77;;;-0.10;18.80;;;;;;4953980;28;20189;-75
2023/01/20 07:15:54;;;;;;;26.13;14.53;;;-0.10;20.20;;;;;;4953499;28;20275;-76
2023/01/20 07:18:20;;;;;;;21.37;13.17;;;-0.10;18.40;;;;;;4952511;28;20628;-75
2023/01/20 07:20:45;;;;;;;21.23;14.00;;;-0.10;16.90;;;;;;4953800;28;20202;-76
2023/01/20 07:23:11;;;;;;;25.90;14.33;;;0.30;16.40;;;;;;4953560;28;20190;-76
2023/01/20 07:25:38;;;;;;;20.47;13.50;;;-0.10;15.50;;;;;;5017967;23;20231;-75
2023/01/20 07:28:04;;;;;;;22.40;13.23;;;0.30;16.10;;;;;;4973517;28;20677;-75
2023/01/20 07:30:29;;;;;;;22.07;14.00;;;-0.10;15.30;;;;;;4972030;28;20423;-75
2023/01/20 07:32:55;;;;;;;23.83;14.10;;;0.10;15.40;;;;;;4988991;28;20446;-76
2023/01/20 07:35:20;;;;;;;26.30;15.90;;;-0.10;12.60;;;;;;4971858;28;20239;-74
2023/01/20 07:37:46;;;;;;;27.07;14.50;;;0.00;14.90;;;;;;4973592;28;20208;-75
2023/01/20 07:40:11;;;;;;;28.80;15.40;;;-0.10;13.90;;;;;;4972059;28;20195;-76
2023/01/20 07:42:37;;;;;;;26.03;15.43;;;-0.10;13.30;;;;;;4973247;28;20211;-75
2023/01/20 07:45:03;;;;;;;27.57;16.37;;;0.30;12.80;;;;;;4972697;28;20298;-74
2023/01/20 07:47:29;;;;;;;26.23;15.13;;;0.00;13.20;;;;;;4972871;28;20735;-75
2023/01/20 07:49:54;;;;;;;27.37;15.70;;;0.00;12.90;;;;;;4973083;28;20534;-75
2023/01/20 07:52:20;;;;;;;27.50;14.67;;;0.00;11.70;;;;;;4972695;28;20713;-75
2023/01/20 07:54:45;;;;;;;24.77;15.23;;;0.30;10.20;;;;;;4971728;28;20203;-74
2023/01/20 07:57:11;;;;;;;24.13;13.37;;;0.50;7.90;;;;;;4971529;28;20290;-73
2023/01/20 07:59:36;;;;;;;32.30;13.20;;;0.50;8.90;;;;;;4972889;28;20206;-75
2023/01/20 08:02:02;;;;;;;24.63;14.60;;;0.60;11.60;;;;;;4971154;28;20179;-75
2023/01/20 08:04:28;;;;;;;22.10;13.87;;;0.60;14.20;;;;;;4971668;28;20585;-75
2023/01/20 08:06:53;;;;;;;23.73;14.40;;;0.20;12.20;;;;;;4965192;28;20223;-74
2023/01/20 08:09:19;;;;;;;29.43;16.23;;;0.50;12.70;;;;;;4970696;28;20196;-77
2023/01/20 08:11:44;;;;;;;22.80;13.97;;;0.80;11.50;;;;;;4971695;28;20196;-74
2023/01/20 08:14:10;;;;;;;26.73;14.57;;;0.60;9.80;;;;;;4970356;28;20211;-74
2023/01/20 08:16:35;;;;;;;21.30;13.70;;;0.80;11.50;;;;;;4969748;28;20184;-75
2023/01/20 08:19:01;;;;;;;27.07;13.97;;;0.60;10.80;;;;;;4968387;28;20216;-75
2023/01/20 08:21:30;;;;;;;22.03;13.00;;;0.70;10.60;;;;;;4972683;28;20654;-74
2023/01/20 08:23:56;;;;;;;20.80;13.00;;;0.70;11.30;;;;;;4972724;28;20180;-74
2023/01/20 08:26:23;;;;;;;22.40;13.03;;;0.80;11.70;;;;;;4971901;28;20459;-75
2023/01/20 08:28:49;;;;;;;22.40;13.77;;;0.80;11.10;;;;;;4972837;28;20431;-75
2023/01/20 08:31:18;;;;;;;23.90;14.10;;;1.40;10.50;;;;;;4972321;28;20976;-75
2023/01/20 08:33:44;;;;;;;22.63;13.23;;;1.00;10.10;;;;;;4971309;28;20965;-75
2023/01/20 08:36:16;;;;;;;21.30;13.67;;;1.10;8.40;;;;;;4972435;28;20478;-75
2023/01/20 08:38:42;;;;;;;19.57;12.50;;;1.50;9.00;;;;;;4963963;28;20459;-74
2023/01/20 08:41:14;;;;;;;21.53;13.00;;;1.10;7.90;;;;;;4971329;28;20423;-74
2023/01/20 08:43:40;;;;;;;21.53;13.40;;;1.20;7.70;;;;;;4971248;28;20529;-75
2023/01/20 08:46:09;;;;;;;26.63;13.63;;;1.20;4.60;;;;;;4972243;28;20989;-75
2023/01/20 08:48:36;;;;;;;26.33;12.30;;;1.30;5.00;;;;;;4970938;28;20188;-75
2023/01/20 08:51:04;;;;;;;25.13;12.57;;;1.40;3.70;;;;;;4971206;28;20423;-75
2023/01/20 08:53:29;;;;;;;21.57;12.80;;;1.40;3.40;;;;;;4971934;28;20420;-75
2023/01/20 08:56:00;;;;;;;16.97;11.67;;;1.70;3.10;;;;;;4970539;28;20838;-75
2023/01/20 08:58:27;;;;;;;18.40;12.10;;;1.60;1.00;;;;;;4971948;28;20781;-75
2023/01/20 09:00:53;;;;;;;16.70;11.67;;;1.70;1.00;;;;;;4972202;28;20547;-75
2023/01/20 09:03:19;;;;;;;19.63;11.67;;;1.70;1.00;;;;;;4971842;28;20922;-75
2023/01/20 09:05:45;;;;;;;20.57;11.87;;;1.80;1.00;;;;;;4970422;28;20510;-75
2023/01/20 09:08:11;;;;;;;19.23;12.37;;;1.80;1.00;;;;;;4972541;28;20550;-75
2023/01/20 09:10:37;;;;;;;18.00;12.10;;;1.80;1.00;;;;;;4971639;28;20431;-75
2023/01/20 09:13:02;;;;;;;19.00;11.47;;;2.00;1.00;;;;;;4970662;28;20179;-76
2023/01/20 09:15:28;;;;;;;19.50;11.80;;;2.00;1.00;;;;;;4971332;28;20269;-75
2023/01/20 09:17:53;;;;;;;20.23;12.07;;;2.10;1.00;;;;;;4966011;28;20212;-75
2023/01/20 09:20:19;;;;;;;18.77;11.63;;;2.30;1.00;;;;;;4971199;28;20570;-75
2023/01/20 09:22:44;;;;;;;21.40;12.03;;;2.80;1.00;;;;;;4971844;28;20194;-75
2023/01/20 09:25:10;;;;;;;18.47;11.70;;;2.80;1.00;;;;;;4971562;28;20487;-75
2023/01/20 09:27:36;;;;;;;18.50;12.17;;;3.50;1.00;;;;;;4971400;28;20190;-75
2023/01/20 09:30:02;;;;;;;19.30;11.73;;;4.60;1.00;;;;;;4971821;28;20263;-75
2023/01/20 09:32:28;;;;;;;17.43;11.80;;;5.50;1.00;;;;;;4969961;28;20192;-75
2023/01/20 09:34:55;;;;;;;16.13;11.00;;;6.40;1.00;;;;;;4971643;28;20825;-75
2023/01/20 09:46:19;;;;;;;15.13;10.83;;;12.90;1.00;;;;;;4968115;28;20446;-76
2023/01/20 09:55:01;;;;;;;17.97;12.60;;;15.90;1.00;;;;;;4965126;28;20430;-76
2023/01/20 09:57:32;;;;;;;17.20;12.80;;;15.20;1.00;;;;;;4971067;28;20471;-76
2023/01/20 10:00:19;;;;;;;14.03;12.33;;;15.10;1.00;;;;;;4971614;28;20431;-76
2023/01/20 10:02:50;;;;;;;16.20;13.30;;;15.70;1.00;;;;;;4971163;28;20419;-76
2023/01/20 10:05:25;;;;;;;16.73;12.60;;;16.40;1.00;;;;;;4969732;28;20453;-76
2023/01/20 10:07:57;;;;;;;17.93;13.73;;;16.90;1.00;;;;;;4971460;28;20614;-76
2023/01/20 10:10:30;;;;;;;19.20;13.90;;;18.00;1.00;;;;;;4970366;28;20470;-76
2023/01/20 10:13:07;;;;;;;17.67;13.90;;;17.80;1.00;;;;;;4971349;28;20437;-77
2023/01/20 10:15:35;;;;;;;19.10;13.73;;;16.90;1.00;;;;;;4971259;28;20454;-76
2023/01/20 10:18:29;;;;;;;16.07;13.10;;;17.10;1.00;;;;;;4967342;28;20561;-76
2023/01/20 10:21:10;;;;;;;16.57;13.37;;;17.00;1.00;;;;;;4966698;28;20945;-76
2023/01/20 10:24:21;;;;;;;16.60;13.40;;;17.70;1.00;;;;;;4968996;28;20494;-76
2023/01/20 10:27:01;;;;;;;17.20;13.67;;;17.30;1.00;;;;;;4963557;28;20434;-77
2023/01/20 10:29:34;;;;;;;17.40;12.37;;;17.80;1.00;;;;;;4970654;28;20513;-76
2023/01/20 10:32:02;;;;;;;16.90;12.90;;;18.50;1.00;;;;;;4971529;28;20427;-76
2023/01/20 10:34:43;;;;;;;16.93;13.50;;;19.00;1.00;;;;;;4970534;28;20530;-76
2023/01/20 10:37:10;;;;;;;16.47;13.00;;;19.30;1.00;;;;;;4969578;28;20438;-76
2023/01/20 10:39:48;;;;;;;15.60;13.00;;;19.50;1.00;;;;;;4970885;28;20439;-76
2023/01/20 10:42:15;;;;;;;19.07;13.13;;;20.10;1.00;;;;;;4969700;28;20441;-76
2023/01/20 10:44:42;;;;;;;16.30;12.23;;;21.50;1.00;;;;;;4969144;28;20443;-77
2023/01/20 10:47:16;;;;;;;20.50;13.17;;;22.20;1.00;;;;;;4970963;28;20444;-76
2023/01/20 10:50:24;;;;;;;16.47;12.97;;;22.90;1.00;;;;;;4969649;28;20441;-76
2023/01/20 10:53:09;;;;;;;17.20;13.80;;;23.00;1.00;;;;;;4963491;28;20855;-77
2023/01/20 10:55:53;;;;;;;15.70;12.47;;;21.90;1.00;;;;;;4970354;28;20446;-76
2023/01/20 10:58:26;;;;;;;15.90;13.17;;;20.20;1.00;;;;;;4969713;28;21080;-76
2023/01/20 11:00:51;;;;;;;17.63;12.43;;;17.90;1.00;;;;;;4963736;28;20423;-76
2023/01/20 11:03:20;;;;;;;16.70;12.63;;;15.00;1.00;;;;;;4970646;28;20423;-76
2023/01/20 11:05:48;;;;;;;13.67;10.03;;;12.50;1.00;;;;;;4970569;28;20195;-76
2023/01/20 11:08:24;;;;;;;12.90;9.80;;;11.40;1.00;;;;;;4973392;28;20430;-76
2023/01/20 11:10:54;;;;;;;12.30;9.03;;;11.00;1.00;;;;;;4981910;28;20503;-76
2023/01/20 11:13:20;;;;;;;12.27;9.50;;;10.60;1.00;;;;;;4974071;28;20477;-76
2023/01/20 11:15:49;;;;;;;11.90;9.40;;;10.00;1.00;;;;;;4973798;28;20865;-76
2023/01/20 11:18:14;;;;;;;14.10;9.23;;;9.60;1.00;;;;;;4966993;28;20211;-75
2023/01/20 11:20:51;;;;;;;13.60;8.90;;;9.40;1.00;;;;;;4972488;28;20430;-75
2023/01/20 11:23:31;;;;;;;14.40;8.97;;;9.20;1.00;;;;;;4972669;28;20594;-75
2023/01/20 11:26:00;;;;;;;11.50;8.17;;;9.00;1.00;;;;;;4981962;28;20885;-75
2023/01/20 11:28:35;;;;;;;13.03;8.80;;;8.80;1.00;;;;;;4972487;28;20949;-75
2023/01/20 11:31:01;;;;;;;16.80;8.70;;;8.70;1.00;;;;;;4974023;28;20961;-75
2023/01/20 11:33:27;;;;;;;10.40;8.17;;;8.80;1.00;;;;;;4972103;28;20427;-75
2023/01/20 11:35:57;;;;;;;10.73;7.90;;;8.90;1.00;;;;;;4973527;28;20462;-75
2023/01/20 11:38:25;;;;;;;14.33;8.67;;;8.90;1.00;;;;;;4973178;28;20199;-73
2023/01/20 11:40:52;;;;;;;12.30;8.50;;;8.50;1.00;;;;;;4973840;28;20424;-76
2023/01/20 11:43:29;;;;;;;20.77;14.23;;;8.50;1.00;;;;;;4972236;28;20446;-76
2023/01/20 11:46:20;;;;;;;15.67;9.20;;;8.60;1.00;;;;;;4966424;28;20939;-75
2023/01/20 11:48:45;;;;;;;13.23;9.10;;;8.40;1.00;;;;;;4973795;28;20510;-75
2023/01/20 11:51:21;;;;;;;16.23;9.03;;;8.30;1.00;;;;;;4973628;28;20521;-75
2023/01/20 11:53:47;;;;;;;12.00;9.50;;;7.90;1.00;;;;;;4973054;28;20773;-76
2023/01/20 11:56:23;;;;;;;11.23;8.27;;;7.80;1.00;;;;;;4973207;28;20459;-75
2023/01/20 11:58:55;;;;;;;15.23;8.77;;;7.70;1.00;;;;;;4964438;28;20207;-75
2023/01/20 12:01:56;;;;;;;14.93;9.20;;;7.60;1.00;;;;;;4972998;28;20534;-75
2023/01/20 12:04:37;;;;;;;11.77;8.70;;;7.50;1.00;;;;;;4971916;28;20454;-75
2023/01/20 12:07:10;;;;;;;15.03;9.50;;;7.70;1.00;;;;;;4965868;28;20771;-75
2023/01/20 12:09:40;;;;;;;16.77;9.93;;;8.10;1.00;;;;;;4972810;28;20431;-75
2023/01/20 12:12:12;;;;;;;15.97;9.70;;;8.60;1.00;;;;;;4971633;28;21027;-74
2023/01/20 12:14:58;;;;;;;15.60;9.60;;;8.70;1.00;;;;;;4972835;28;20478;-76
2023/01/20 12:17:47;;;;;;;12.37;8.90;;;8.80;1.00;;;;;;4972238;28;22843;-76
2023/01/20 12:20:16;;;;;;;14.73;9.70;;;8.90;1.00;;;;;;4968120;28;20506;-75
2023/01/20 12:23:13;;;;;;;18.17;9.33;;;9.10;1.00;;;;;;4972461;28;20477;-76
2023/01/20 12:25:50;;;;;;;13.50;9.70;;;9.20;1.00;;;;;;4972055;28;20542;-75
2023/01/20 12:28:21;;;;;;;13.67;9.70;;;9.30;1.00;;;;;;4970883;28;20449;-75
2023/01/20 12:31:00;;;;;;;18.40;9.93;;;10.20;1.00;;;;;;4972551;28;20914;-76
2023/01/20 12:33:39;;;;;;;16.20;9.87;;;10.80;1.00;;;;;;4971168;28;20438;-74
2023/01/20 12:36:29;;;;;;;14.83;8.80;;;10.50;1.00;;;;;;4972500;28;20451;-76
2023/01/20 12:39:08;;;;;;;10.50;7.33;;;9.50;1.00;;;;;;4963728;28;20466;-75
2023/01/20 12:41:52;;;;;;;11.73;7.87;;;8.30;1.00;;;;;;4971053;28;20423;-76
2023/01/20 12:44:52;;;;;;;13.20;7.83;;;7.50;1.00;;;;;;4972645;28;20423;-75
2023/01/20 12:47:48;;;;;;;11.53;7.07;;;7.10;1.00;;;;;;4967861;28;20518;-76
2023/01/20 12:50:29;;;;;;;13.77;7.87;;;7.00;1.00;;;;;;4966308;28;20439;-75
2023/01/20 12:53:11;;;;;;;13.27;7.30;;;7.20;1.00;;;;;;4964821;28;20423;-76
2023/01/20 12:56:05;;;;;;;11.37;6.93;;;7.30;1.00;;;;;;4970230;28;20451;-75
2023/01/20 12:58:46;;;;;;;13.07;7.67;;;7.50;1.00;;;;;;4972100;28;20466;-76
2023/01/20 13:01:17;;;;;;;11.03;7.23;;;7.40;1.00;;;;;;4970850;28;20436;-75
2023/01/20 13:04:22;;;;;;;13.43;8.20;;;7.20;1.00;;;;;;4970686;28;20455;-75
2023/01/20 13:06:59;;;;;;;11.93;7.30;;;6.90;1.00;;;;;;4971562;28;20427;-75
2023/01/20 13:09:29;;;;;;;10.80;6.67;;;6.40;1.00;;;;;;4970896;28;20419;-75
2023/01/20 13:12:13;;;;;;;9.00;6.37;;;6.20;1.00;;;;;;4972240;28;20427;-75
2023/01/20 13:14:49;;;;;;;15.43;8.27;;;6.10;1.00;;;;;;4971700;28;20980;-75
2023/01/20 13:17:48;;;;;;;13.10;7.70;;;6.10;1.00;;;;;;4964338;28;20528;-76
2023/01/20 13:20:23;;;;;;;12.80;7.87;;;6.00;1.00;;;;;;4966658;28;20438;-75